createdAt,value
2023-02-03T00:01:00.034Z,-2.62
2023-02-03T00:03:32.625Z,-2.65
2023-02-03T00:06:04.762Z,-2.53
2023-02-03T00:08:32.184Z,-2.51
2023-02-03T00:11:00.138Z,-2.49
2023-02-03T00:13:27.574Z,-2.55
2023-02-03T00:15:55.052Z,-2.47
2023-02-03T00:18:22.187Z,-2.47
2023-02-03T00:20:51.020Z,-2.43
2023-02-03T00:23:20.779Z,-2.36
2023-02-03T00:25:48.145Z,-2.42
2023-02-03T00:28:28.333Z,-2.42
2023-02-03T00:30:55.682Z,-2.33
2023-02-03T00:33:22.736Z,-2.32
2023-02-03T00:35:50.198Z,-2.28
2023-02-03T00:38:17.451Z,-2.27
2023-02-03T00:40:53.586Z,-2.17
2023-02-03T00:43:23.381Z,-2.17
2023-02-03T00:45:51.127Z,-2.14
2023-02-03T00:48:18.252Z,-2.02
2023-02-03T00:50:50.119Z,-1.91
2023-02-03T00:53:17.153Z,-1.84
2023-02-03T00:55:44.573Z,-1.79
2023-02-03T00:58:11.712Z,-1.76
2023-02-03T01:00:39.178Z,-1.75
2023-02-03T01:03:06.473Z,-1.70
2023-02-03T01:05:38.679Z,-1.67
2023-02-03T01:08:05.934Z,-1.60
2023-02-03T01:10:34.130Z,-1.56
2023-02-03T01:13:01.262Z,-1.58
2023-02-03T01:15:28.716Z,-1.54
2023-02-03T01:17:55.799Z,-1.58
2023-02-03T01:20:24.508Z,-1.54
2023-02-03T01:22:52.072Z,-1.46
2023-02-03T01:25:19.987Z,-1.47
2023-02-03T01:27:47.137Z,-1.44
2023-02-03T01:30:14.758Z,-1.46
2023-02-03T01:32:41.862Z,-1.47
2023-02-03T01:35:09.664Z,-1.48
2023-02-03T01:37:38.024Z,-1.47
2023-02-03T01:40:06.869Z,-1.41
2023-02-03T01:42:34.456Z,-1.41
2023-02-03T01:45:01.937Z,-1.41
2023-02-03T01:48:00.227Z,-1.37
2023-02-03T01:50:37.331Z,-1.31
2023-02-03T01:53:10.811Z,-1.31
2023-02-03T01:55:43.146Z,-1.22
2023-02-03T01:58:20.506Z,-1.24
2023-02-03T02:00:49.795Z,-1.27
2023-02-03T02:03:22.345Z,-1.27
2023-02-03T02:05:59.021Z,-1.19
2023-02-03T02:08:26.274Z,-1.20
2023-02-03T02:10:53.945Z,-1.20
2023-02-03T02:13:22.405Z,-1.21
2023-02-03T02:16:20.918Z,-1.17
2023-02-03T02:19:15.298Z,-1.18
2023-02-03T02:22:20.357Z,-1.17
2023-02-03T02:25:00.297Z,-1.12
2023-02-03T02:27:52.992Z,-1.11
2023-02-03T02:30:50.457Z,-1.10
2023-02-03T02:33:18.365Z,-1.08
2023-02-03T02:36:08.291Z,-1.10
2023-02-03T02:39:01.720Z,-1.09
2023-02-03T02:41:35.528Z,-1.03
2023-02-03T02:44:33.411Z,-1.01
2023-02-03T02:47:11.070Z,-1.02
2023-02-03T02:49:47.478Z,-0.99
2023-02-03T02:52:18.870Z,-0.98
2023-02-03T02:54:51.729Z,-1.01
2023-02-03T02:57:21.693Z,-0.95
2023-02-03T02:59:49.724Z,-0.99
2023-02-03T03:02:17.584Z,-1.02
2023-02-03T03:04:48.454Z,-1.01
2023-02-03T03:07:25.002Z,-1.10
2023-02-03T03:09:59.377Z,-1.25
2023-02-03T03:12:35.005Z,-1.23
2023-02-03T03:15:11.417Z,-1.26
2023-02-03T03:17:46.839Z,-1.21
2023-02-03T03:20:21.452Z,-1.24
2023-02-03T03:22:55.430Z,-1.25
2023-02-03T03:25:30.807Z,-1.18
2023-02-03T03:28:03.224Z,-1.14
2023-02-03T03:30:34.959Z,-1.08
2023-02-03T03:33:04.846Z,-1.11
2023-02-03T03:35:49.404Z,-1.04
2023-02-03T03:38:32.163Z,-0.94
2023-02-03T03:41:21.361Z,-0.87
2023-02-03T03:43:51.338Z,-0.83
2023-02-03T03:46:28.888Z,-0.76
2023-02-03T03:51:52.247Z,-0.67
2023-02-03T03:54:23.319Z,-0.64
2023-02-03T03:57:21.592Z,-0.63
2023-02-03T03:59:49.857Z,-0.65
2023-02-03T04:02:19.172Z,-0.61
2023-02-03T04:04:48.460Z,-0.65
2023-02-03T04:07:16.158Z,-0.59
2023-02-03T04:09:45.785Z,-0.54
2023-02-03T04:12:24.272Z,-0.53
2023-02-03T04:14:52.033Z,-0.54
2023-02-03T04:17:20.546Z,-0.45
2023-02-03T04:19:50.447Z,-0.39
2023-02-03T04:22:19.226Z,-0.39
2023-02-03T04:24:47.291Z,-0.33
2023-02-03T04:27:14.900Z,-0.31
2023-02-03T04:29:46.674Z,-0.23
2023-02-03T04:32:17.229Z,-0.22
2023-02-03T04:34:44.547Z,-0.12
2023-02-03T04:37:11.981Z,-0.10
2023-02-03T04:39:39.097Z,-0.07
2023-02-03T04:42:06.513Z,-0.03
2023-02-03T04:44:33.608Z,-0.05
2023-02-03T04:47:01.689Z,-0.01
2023-02-03T04:49:30.581Z,0.01
2023-02-03T04:51:58.099Z,0.03
2023-02-03T04:54:25.297Z,0.06
2023-02-03T04:56:52.644Z,0.09
2023-02-03T04:59:20.574Z,0.10
2023-02-03T05:04:29.187Z,0.20
2023-02-03T05:07:09.767Z,0.25
2023-02-03T05:09:39.175Z,0.23
2023-02-03T05:14:52.833Z,0.13
2023-02-03T05:17:21.807Z,0.14
2023-02-03T05:19:49.390Z,0.14
2023-02-03T05:22:16.855Z,0.08
2023-02-03T05:24:47.555Z,-0.01
2023-02-03T05:27:15.640Z,0.05
2023-02-03T05:29:43.552Z,0.09
2023-02-03T05:32:11.210Z,0.09
2023-02-03T05:34:44.106Z,0.11
2023-02-03T05:37:11.889Z,0.14
2023-02-03T05:39:42.306Z,0.21
2023-02-03T05:42:10.237Z,0.19
2023-02-03T05:44:41.918Z,0.26
2023-02-03T05:47:33.579Z,0.35
2023-02-03T05:50:00.668Z,0.33
2023-02-03T05:52:29.952Z,0.36
2023-02-03T05:54:56.957Z,0.31
2023-02-03T05:57:24.528Z,0.40
2023-02-03T05:59:51.540Z,0.48
2023-02-03T06:02:18.902Z,0.51
2023-02-03T06:04:46.434Z,0.54
2023-02-03T06:07:16.544Z,0.60
2023-02-03T06:09:44.538Z,0.71
2023-02-03T06:12:21.220Z,0.78
2023-02-03T06:14:48.671Z,0.90
2023-02-03T06:19:58.693Z,1.23
2023-02-03T06:22:28.112Z,1.36
2023-02-03T06:24:56.814Z,1.50
2023-02-03T06:27:24.360Z,1.65
2023-02-03T06:29:51.481Z,1.72
2023-02-03T06:32:21.124Z,1.76
2023-02-03T06:34:48.170Z,1.87
2023-02-03T06:37:15.759Z,1.95
2023-02-03T06:39:42.700Z,2.05
2023-02-03T06:42:10.278Z,2.06
2023-02-03T06:44:37.320Z,2.10
2023-02-03T06:47:04.796Z,2.15
2023-02-03T06:49:31.873Z,2.19
2023-02-03T06:51:59.255Z,2.18
2023-02-03T06:54:26.432Z,2.22
2023-02-03T06:56:53.727Z,2.25
2023-02-03T06:59:22.949Z,2.26
2023-02-03T07:01:50.316Z,2.29
2023-02-03T07:04:17.340Z,2.33
2023-02-03T07:06:44.728Z,2.30
2023-02-03T07:09:11.837Z,2.34
2023-02-03T07:11:41.979Z,2.35
2023-02-03T07:14:13.441Z,2.39
2023-02-03T07:16:40.893Z,2.43
2023-02-03T07:19:08.360Z,2.45
2023-02-03T07:21:35.711Z,2.48
2023-02-03T07:24:03.232Z,2.50
2023-02-03T07:26:30.906Z,2.50
2023-02-03T07:29:00.138Z,2.55
2023-02-03T07:31:28.239Z,2.64
2023-02-03T07:33:55.577Z,2.65
2023-02-03T07:36:24.335Z,2.67
2023-02-03T07:38:51.337Z,2.72
2023-02-03T07:41:21.438Z,2.81
2023-02-03T07:43:48.486Z,2.87
2023-02-03T07:46:16.324Z,2.86
2023-02-03T07:48:43.355Z,2.89
2023-02-03T07:51:10.740Z,2.83
2023-02-03T07:53:37.916Z,2.74
2023-02-03T07:56:05.806Z,2.80
2023-02-03T07:58:33.089Z,2.87
2023-02-03T08:01:00.527Z,2.98
2023-02-03T08:03:27.577Z,3.06
2023-02-03T08:05:56.177Z,2.97
2023-02-03T08:08:23.237Z,2.85
2023-02-03T08:10:53.371Z,2.75
2023-02-03T08:13:22.109Z,2.74
2023-02-03T08:15:50.058Z,2.75
2023-02-03T08:18:17.177Z,2.73
2023-02-03T08:20:48.309Z,2.77
2023-02-03T08:23:16.731Z,2.85
2023-02-03T08:25:47.322Z,2.93
2023-02-03T08:28:14.384Z,3.08
2023-02-03T08:30:41.804Z,3.14
2023-02-03T08:33:08.917Z,3.24
2023-02-03T08:38:54.754Z,3.54
2023-02-03T08:41:22.176Z,3.49
2023-02-03T08:43:51.696Z,3.44
2023-02-03T08:46:19.270Z,3.46
2023-02-03T08:48:46.709Z,3.47
2023-02-03T08:51:16.442Z,3.59
2023-02-03T08:53:44.250Z,3.65
2023-02-03T08:56:27.316Z,3.58
2023-02-03T08:58:56.058Z,3.65
2023-02-03T09:01:24.172Z,3.95
2023-02-03T09:04:08.408Z,4.15
2023-02-03T09:06:36.827Z,4.17
2023-02-03T09:09:04.295Z,4.23
2023-02-03T09:11:32.093Z,4.25
2023-02-03T09:14:01.324Z,4.38
2023-02-03T09:16:31.153Z,4.47
2023-02-03T09:18:58.344Z,4.55
2023-02-03T09:21:35.068Z,4.64
2023-02-03T09:24:05.791Z,4.56
2023-02-03T09:26:33.137Z,4.52
2023-02-03T09:29:03.488Z,4.64
2023-02-03T09:31:35.335Z,4.69
2023-02-03T09:34:02.819Z,4.61
2023-02-03T09:36:30.241Z,4.57
2023-02-03T09:39:00.651Z,4.51
2023-02-03T09:42:01.112Z,4.56
2023-02-03T09:44:31.399Z,4.62
2023-02-03T09:47:23.515Z,4.57
2023-02-03T09:49:53.999Z,4.66
2023-02-03T09:52:27.318Z,4.76
2023-02-03T09:55:05.893Z,4.77
2023-02-03T09:57:48.672Z,4.83
2023-02-03T10:00:30.991Z,4.87
2023-02-03T10:03:04.348Z,5.04
2023-02-03T10:05:59.128Z,5.25
2023-02-03T10:09:07.296Z,6.58
2023-02-03T10:11:47.224Z,8.88
2023-02-03T10:14:43.020Z,11.44
2023-02-03T10:17:38.236Z,11.01
2023-02-03T10:20:17.743Z,11.02
2023-02-03T10:22:50.713Z,9.48
2023-02-03T10:25:17.797Z,7.84
2023-02-03T10:27:49.078Z,6.63
2023-02-03T10:30:23.960Z,6.01
2023-02-03T10:33:12.907Z,5.49
2023-02-03T10:35:51.027Z,5.18
2023-02-03T10:41:23.108Z,5.33
2023-02-03T10:43:57.534Z,5.13
2023-02-03T10:46:36.167Z,4.84
2023-02-03T10:49:04.135Z,4.80
2023-02-03T10:51:41.220Z,4.82
2023-02-03T10:54:32.386Z,5.75
2023-02-03T10:57:11.304Z,7.63
2023-02-03T10:59:43.764Z,8.58
2023-02-03T11:02:34.642Z,7.38
2023-02-03T11:05:20.460Z,6.35
2023-02-03T11:07:48.708Z,6.71
2023-02-03T11:10:30.717Z,8.50
2023-02-03T11:13:16.960Z,9.36
2023-02-03T11:16:05.928Z,10.43
2023-02-03T11:18:39.187Z,9.91
2023-02-03T11:21:13.340Z,8.05
2023-02-03T11:24:23.422Z,6.71
2023-02-03T11:26:59.482Z,5.93
2023-02-03T11:29:29.335Z,5.53
2023-02-03T11:31:59.974Z,5.46
2023-02-03T11:34:34.584Z,5.64
2023-02-03T11:37:23.900Z,5.70
2023-02-03T11:39:51.001Z,5.66
2023-02-03T11:42:25.269Z,6.11
2023-02-03T11:45:15.813Z,8.02
2023-02-03T11:48:36.409Z,9.82
2023-02-03T11:51:37.249Z,10.27
2023-02-03T11:54:17.855Z,11.00
2023-02-03T11:57:15.386Z,10.53
2023-02-03T11:59:51.982Z,10.09
2023-02-03T12:02:28.440Z,8.81
2023-02-03T12:04:56.109Z,7.86
2023-02-03T12:07:49.734Z,7.11
2023-02-03T12:10:38.931Z,7.22
2023-02-03T12:13:31.654Z,7.49
2023-02-03T12:16:14.438Z,7.70
2023-02-03T12:19:00.944Z,8.80
2023-02-03T12:22:24.980Z,8.64
2023-02-03T12:25:03.226Z,8.65
2023-02-03T12:27:55.971Z,7.40
2023-02-03T12:30:32.398Z,6.41
2023-02-03T12:33:23.572Z,6.41
2023-02-03T12:36:00.746Z,7.32
2023-02-03T12:38:42.416Z,8.47
2023-02-03T12:42:00.919Z,8.74
2023-02-03T12:44:44.439Z,8.50
2023-02-03T12:47:25.396Z,7.29
2023-02-03T12:50:00.878Z,6.84
2023-02-03T12:52:39.688Z,6.21
2023-02-03T12:55:21.814Z,5.75
2023-02-03T12:57:54.972Z,5.96
2023-02-03T13:00:47.550Z,6.70
2023-02-03T13:03:35.785Z,7.45
2023-02-03T13:06:20.716Z,8.01
2023-02-03T13:09:40.545Z,8.30
2023-02-03T13:15:19.320Z,8.95
2023-02-03T13:17:46.736Z,8.50
2023-02-03T13:20:21.678Z,7.88
2023-02-03T13:22:53.554Z,7.47
2023-02-03T13:25:42.186Z,6.81
2023-02-03T13:28:25.214Z,6.38
2023-02-03T13:30:58.599Z,5.93
2023-02-03T13:33:44.934Z,5.40
2023-02-03T13:36:21.070Z,5.38
2023-02-03T13:39:15.210Z,5.30
2023-02-03T13:41:50.283Z,5.11
2023-02-03T13:44:30.869Z,5.39
2023-02-03T13:47:00.075Z,5.26
2023-02-03T13:49:36.613Z,4.91
2023-02-03T13:52:04.864Z,4.97
2023-02-03T13:57:34.562Z,4.55
2023-02-03T14:00:25.952Z,4.66
2023-02-03T14:02:57.692Z,4.54
2023-02-03T14:05:51.042Z,4.83
2023-02-03T14:08:30.253Z,4.56
2023-02-03T14:11:44.217Z,4.15
2023-02-03T14:14:11.366Z,3.87
2023-02-03T14:16:43.389Z,3.76
2023-02-03T14:19:32.597Z,3.59
2023-02-03T14:22:16.012Z,3.66
2023-02-03T14:24:46.668Z,3.69
2023-02-03T14:27:21.493Z,3.65
2023-02-03T14:30:09.671Z,3.47
2023-02-03T14:32:52.872Z,3.26
2023-02-03T14:35:30.214Z,3.23
2023-02-03T14:38:03.890Z,3.09
2023-02-03T14:40:58.424Z,3.06
2023-02-03T14:43:44.603Z,2.98
2023-02-03T14:46:36.684Z,2.88
2023-02-03T14:49:42.598Z,2.78
2023-02-03T14:52:37.501Z,2.65
2023-02-03T14:58:55.355Z,2.48
2023-02-03T15:01:29.141Z,2.41
2023-02-03T15:04:21.211Z,2.36
2023-02-03T15:06:52.420Z,2.21
2023-02-03T15:09:38.874Z,2.23
2023-02-03T15:12:23.025Z,2.06
2023-02-03T15:14:52.679Z,2.09
2023-02-03T15:17:26.995Z,1.99
2023-02-03T15:19:54.645Z,1.94
2023-02-03T15:22:23.717Z,1.84
2023-02-03T15:24:53.723Z,1.76
2023-02-03T15:27:26.559Z,1.77
2023-02-03T15:29:54.745Z,1.72
2023-02-03T15:32:34.438Z,1.70
2023-02-03T15:35:05.036Z,1.66
2023-02-03T15:37:56.529Z,1.62
2023-02-03T15:40:30.525Z,1.59
2023-02-03T15:43:15.153Z,1.48
2023-02-03T15:45:46.200Z,1.50
2023-02-03T15:48:33.787Z,1.46
2023-02-03T15:51:19.286Z,1.36
2023-02-03T15:54:00.831Z,1.40
2023-02-03T15:56:38.347Z,1.36
2023-02-03T15:59:23.366Z,1.25
2023-02-03T16:01:52.075Z,1.22
2023-02-03T16:04:21.347Z,1.14
2023-02-03T16:07:00.113Z,1.11
2023-02-03T16:09:41.199Z,1.06
2023-02-03T16:12:11.559Z,1.02
2023-02-03T16:20:25.531Z,0.93
2023-02-03T16:23:05.020Z,0.95
2023-02-03T16:25:34.405Z,0.89
2023-02-03T16:28:40.759Z,0.83
2023-02-03T16:31:41.768Z,0.82
2023-02-03T16:34:36.664Z,0.79
2023-02-03T16:37:32.333Z,0.78
2023-02-03T16:40:18.102Z,0.67
2023-02-03T16:43:04.380Z,0.67
2023-02-03T16:45:49.964Z,0.63
2023-02-03T16:48:37.365Z,0.58
2023-02-03T16:51:16.094Z,0.50
2023-02-03T16:53:45.586Z,0.51
2023-02-03T16:56:13.836Z,0.44
2023-02-03T16:58:41.516Z,0.42
2023-02-03T17:01:11.533Z,0.38
2023-02-03T17:03:39.094Z,0.32
2023-02-03T17:06:09.377Z,0.33
2023-02-03T17:08:38.047Z,0.38
2023-02-03T17:11:15.696Z,0.32
2023-02-03T17:13:43.289Z,0.28
2023-02-03T17:16:16.928Z,0.26
2023-02-03T17:18:46.439Z,0.24
2023-02-03T17:21:16.482Z,0.21
2023-02-03T17:23:44.726Z,0.21
2023-02-03T17:26:18.199Z,0.21
2023-02-03T17:28:54.140Z,0.11
2023-02-03T17:31:24.057Z,0.06
2023-02-03T17:33:52.303Z,0.10
2023-02-03T17:36:21.779Z,-0.01
2023-02-03T17:55:33.545Z,-0.15
2023-02-03T17:58:01.256Z,-0.21
2023-02-03T18:00:28.461Z,-0.25
2023-02-03T18:02:58.723Z,-0.28
2023-02-03T18:05:29.090Z,-0.30
2023-02-03T18:07:56.701Z,-0.38
2023-02-03T18:10:23.816Z,-0.31
2023-02-03T18:12:51.273Z,-0.27
2023-02-03T18:15:22.111Z,-0.25
2023-02-03T18:17:57.857Z,-0.26
2023-02-03T18:20:28.291Z,-0.28
2023-02-03T18:22:56.169Z,-0.32
2023-02-03T18:25:30.077Z,-0.37
2023-02-03T18:28:11.883Z,-0.38
2023-02-03T18:30:39.549Z,-0.31
2023-02-03T18:33:06.882Z,-0.23
2023-02-03T18:35:34.372Z,-0.28
2023-02-03T18:38:04.526Z,-0.32
2023-02-03T18:40:38.079Z,-0.36
2023-02-03T18:43:05.757Z,-0.28
2023-02-03T18:45:35.261Z,-0.29
2023-02-03T18:48:11.890Z,-0.26
2023-02-03T18:50:57.134Z,-0.36
2023-02-03T18:53:26.739Z,-0.33
2023-02-03T18:55:55.767Z,-0.30
2023-02-03T18:58:30.254Z,-0.29
2023-02-03T19:01:00.713Z,-0.35
2023-02-03T19:03:44.963Z,-0.34
2023-02-03T19:06:14.616Z,-0.38
2023-02-03T19:08:41.635Z,-0.42
2023-02-03T19:11:12.302Z,-0.37
2023-02-03T19:13:41.607Z,-0.42
2023-02-03T19:16:12.045Z,-0.47
2023-02-03T19:18:48.560Z,-0.44
2023-02-03T19:21:45.426Z,-0.46
2023-02-03T19:24:16.961Z,-0.44
2023-02-03T19:26:44.414Z,-0.32
2023-02-03T19:29:14.106Z,-0.39
2023-02-03T19:31:41.602Z,-0.42
2023-02-03T19:34:08.646Z,-0.36
2023-02-03T19:36:36.505Z,-0.39
2023-02-03T19:39:10.016Z,-0.41
2023-02-03T19:41:40.795Z,-0.29
2023-02-03T19:44:08.169Z,-0.28
2023-02-03T19:46:42.364Z,-0.19
2023-02-03T19:49:16.267Z,-0.22
2023-02-03T19:51:48.288Z,-0.17
2023-02-03T19:54:17.755Z,-0.19
2023-02-03T19:56:54.687Z,-0.24
2023-02-03T19:59:21.659Z,-0.23
2023-02-03T20:01:52.684Z,-0.21
2023-02-03T20:04:21.913Z,-0.20
2023-02-03T20:07:03.653Z,-0.19
2023-02-03T20:09:34.525Z,-0.22
2023-02-03T20:12:04.608Z,-0.36
2023-02-03T20:17:34.155Z,-0.32
2023-02-03T20:20:06.083Z,-0.36
2023-02-03T20:22:33.242Z,-0.43
2023-02-03T20:27:48.483Z,-0.48
2023-02-03T20:33:01.817Z,-0.62
2023-02-03T20:35:29.498Z,-0.72
2023-02-03T20:37:59.198Z,-0.76
2023-02-03T20:40:32.554Z,-0.73
2023-02-03T20:43:12.379Z,-0.85
2023-02-03T20:45:39.801Z,-0.97
2023-02-03T20:48:11.515Z,-0.95
2023-02-03T20:50:42.632Z,-1.04
2023-02-03T20:53:24.581Z,-1.11
2023-02-03T20:55:57.362Z,-1.17
2023-02-03T20:58:31.476Z,-1.24
2023-02-03T21:00:59.261Z,-1.34
2023-02-03T21:03:47.668Z,-1.35
2023-02-03T21:06:19.002Z,-1.43
2023-02-03T21:08:48.712Z,-1.53
2023-02-03T21:11:20.975Z,-1.58
2023-02-03T21:13:49.888Z,-1.63
2023-02-03T21:16:20.657Z,-1.66
2023-02-03T21:19:07.092Z,-1.83
2023-02-03T21:21:42.305Z,-1.73
2023-02-03T21:24:38.037Z,-1.74
2023-02-03T21:27:32.648Z,-1.73
2023-02-03T21:30:01.959Z,-1.70
2023-02-03T21:32:39.303Z,-1.68
2023-02-03T21:35:31.439Z,-1.79
2023-02-03T21:38:04.409Z,-1.90
2023-02-03T21:40:35.301Z,-1.88
2023-02-03T21:43:04.795Z,-1.93
2023-02-03T21:45:42.616Z,-1.94
2023-02-03T21:48:32.106Z,-2.02
2023-02-03T21:51:04.908Z,-1.96
2023-02-03T21:53:35.943Z,-1.95
2023-02-03T21:56:18.736Z,-1.97
2023-02-03T21:58:50.845Z,-1.90
2023-02-03T22:01:21.354Z,-1.91
2023-02-03T22:03:52.904Z,-1.92
2023-02-03T22:06:28.867Z,-2.01
2023-02-03T22:08:58.511Z,-1.94
2023-02-03T22:11:28.324Z,-1.90
2023-02-03T22:13:57.077Z,-1.92
2023-02-03T22:16:24.781Z,-1.88
2023-02-03T22:18:52.592Z,-1.89
2023-02-03T22:21:19.681Z,-1.87
2023-02-03T22:23:52.252Z,-1.89
2023-02-03T22:26:19.996Z,-1.91
2023-02-03T22:28:49.654Z,-1.93
2023-02-03T22:31:21.087Z,-1.94
2023-02-03T22:33:48.838Z,-2.02
2023-02-03T22:36:19.289Z,-1.94
2023-02-03T22:38:47.327Z,-1.93
2023-02-03T22:41:15.067Z,-1.91
2023-02-03T22:43:42.554Z,-2.01
2023-02-03T22:46:09.783Z,-2.08
2023-02-03T22:48:37.612Z,-2.09
2023-02-03T22:51:05.105Z,-2.14
2023-02-03T22:53:32.748Z,-2.13
2023-02-03T22:55:59.791Z,-2.17
2023-02-03T22:58:27.526Z,-2.17
2023-02-03T23:00:55.024Z,-2.21
2023-02-03T23:03:22.470Z,-2.24
2023-02-03T23:05:49.561Z,-2.28
2023-02-03T23:08:16.924Z,-2.30
2023-02-03T23:10:43.936Z,-2.33
2023-02-03T23:13:11.428Z,-2.34
2023-02-03T23:15:38.469Z,-2.41
2023-02-03T23:18:05.835Z,-2.45
2023-02-03T23:20:33.433Z,-2.44
2023-02-03T23:23:00.903Z,-2.50
2023-02-03T23:25:31.426Z,-2.49
2023-02-03T23:28:01.387Z,-2.53
2023-02-03T23:30:28.688Z,-2.52
2023-02-03T23:32:56.107Z,-2.65
2023-02-03T23:35:41.557Z,-2.61
2023-02-03T23:38:08.873Z,-2.62
2023-02-03T23:40:35.946Z,-2.64
2023-02-03T23:43:06.227Z,-2.64
2023-02-03T23:45:33.252Z,-2.64
2023-02-03T23:48:00.860Z,-2.64
2023-02-03T23:50:27.989Z,-2.70
2023-02-03T23:52:55.352Z,-2.79
2023-02-03T23:55:23.641Z,-2.86
2023-02-03T23:57:51.431Z,-2.88
